ADDS METAR Data INFO
IDs: Format: Raw Decoded Include TAF

Data at: 1914 UTC 23 Apr 2018

KHJH 231855Z AUTO 00000KT 10SM CLR 21/02 A3012 RMK AO2 T02120015
KHJH 231835Z AUTO 12005KT 10SM CLR 21/01 A3013 RMK AO2 T02120008
KHJH 231815Z AUTO 12006KT 10SM CLR 21/01 A3014 RMK AO2 T02090010
KHJH 231755Z AUTO 12003KT 10SM CLR 20/01 A3015 RMK AO2 T02010007 10204 20026
KHJH 231735Z AUTO 11007KT 10SM CLR 20/01 A3015 RMK AO2 T02010009
KHJH 231715Z AUTO 03004KT 10SM CLR 20/01 A3016 RMK AO2 T01970007
KHJH 231655Z AUTO 07006KT 10SM CLR 20/01 A3016 RMK AO2 T01970010
KHJH 231635Z AUTO 16003KT 10SM CLR 19/01 A3017 RMK AO2 T01900008
KHJH 231615Z AUTO 00000KT 10SM CLR 18/01 A3017 RMK AO2 T01830005
KHJH 231555Z AUTO 00000KT 10SM CLR 18/01 A3017 RMK AO2 T01790012
KHJH 231535Z AUTO 10003KT 10SM CLR 17/01 A3017 RMK AO2 T01710009
KHJH 231515Z AUTO 00000KT 10SM CLR 16/01 A3017 RMK AO2 T01610008
KHJH 231455Z AUTO 00000KT 10SM CLR 15/02 A3017 RMK AO2 T01460023
KHJH 231435Z AUTO 00000KT 10SM CLR 13/04 A3018 RMK AO2 T01310036
KHJH 231415Z AUTO 00000KT 10SM CLR 11/04 A3018 RMK AO2 T01120042
KHJH 231355Z AUTO 00000KT 10SM CLR 10/04 A3019 RMK AO2 T00970042
KHJH 231335Z AUTO 00000KT 10SM CLR 08/03 A3019 RMK AO2 T00820034
KHJH 231315Z AUTO 00000KT 10SM CLR 07/02 A3019 RMK AO2 T00660024
KHJH 231255Z AUTO 00000KT 10SM CLR 06/02 A3019 RMK AO2 T00560024
KHJH 231235Z AUTO 00000KT 10SM CLR 05/03 A3019 RMK AO2 T00460029
KHJH 231215Z AUTO 00000KT 10SM CLR 04/01 A3018 RMK AO2 T00360012
KHJH 231155Z AUTO 00000KT 10SM CLR 03/01 A3018 RMK AO2 T00300014 10093 20025
KHJH 231135Z AUTO 00000KT 10SM CLR 03/01 A3017 RMK AO2 T00280011
KHJH 231115Z AUTO 00000KT 10SM CLR 03/02 A3017 RMK AO2 T00310015
KHJH 231055Z AUTO 00000KT 10SM CLR 03/01 A3017 RMK AO2 T00250011
KHJH 231030Z AUTO 00000KT 10SM CLR 04/01 A3016 RMK AO2 T00370011
KHJH 231015Z AUTO 00000KT 10SM CLR 05/02 A3016 RMK AO2 T00460015
KHJH 230955Z AUTO 00000KT 10SM CLR 04/02 A3016 RMK AO2 T00410018
KHJH 230935Z AUTO 00000KT 10SM CLR 04/02 A3016 RMK AO2 T00420020
KHJH 230915Z AUTO 00000KT 10SM CLR 05/02 A3016 RMK AO2 T00470018
KHJH 230855Z AUTO 00000KT 10SM CLR 05/02 A3015 RMK AO2 T00510020
KHJH 230835Z AUTO 00000KT 10SM CLR 05/02 A3015 RMK AO2 T00470023
KHJH 230815Z AUTO 00000KT 10SM CLR 06/02 A3015 RMK AO2 T00550022
KHJH 230755Z AUTO 00000KT 10SM CLR 06/02 A3016 RMK AO2 T00590020
KHJH 230735Z AUTO 00000KT 10SM CLR 07/03 A3016 RMK AO2 T00710027
KHJH 230715Z AUTO 00000KT 10SM CLR 07/03 A3016 RMK AO2 T00670030
KHJH 230655Z AUTO 00000KT 10SM CLR 07/03 A3016 RMK AO2 T00740028
KHJH 230635Z AUTO 00000KT 10SM CLR 09/03 A3015 RMK AO2 T00870033
KHJH 230615Z AUTO 00000KT 10SM CLR 09/04 A3015 RMK AO2 T00900035
KHJH 230555Z AUTO 00000KT 10SM CLR 09/04 A3015 RMK AO2 T00910037 10168 20091 401700035
KHJH 230535Z AUTO 00000KT 10SM BKN085 10/04 A3015 RMK AO2 T01010040
KHJH 230515Z AUTO 00000KT 10SM OVC085 11/04 A3015 RMK AO2 T01050042
KHJH 230455Z AUTO 00000KT 10SM OVC075 11/05 A3015 RMK AO2 T01140049
KHJH 230435Z AUTO 00000KT 10SM OVC075 12/05 A3015 RMK AO2 T01200051
KHJH 230415Z AUTO 00000KT 10SM OVC075 12/05 A3015 RMK AO2 T01210054
KHJH 230355Z AUTO 00000KT 10SM OVC075 13/05 A3015 RMK AO2 T01250051
KHJH 230335Z AUTO 00000KT 10SM OVC075 13/05 A3015 RMK AO2 T01260053
KHJH 230315Z AUTO 00000KT 10SM OVC075 13/05 A3015 RMK AO2 T01290050
KHJH 230255Z AUTO 00000KT 10SM OVC075 13/05 A3015 RMK AO2 T01280054
KHJH 230235Z AUTO 00000KT 10SM OVC075 14/04 A3015 RMK AO2 T01360044
KHJH 230215Z AUTO 00000KT 10SM OVC075 14/05 A3014 RMK AO2 T01380050
KHJH 230155Z AUTO 00000KT 10SM OVC075 14/04 A3014 RMK AO2 T01430043
KHJH 230135Z AUTO 00000KT 10SM OVC075 15/05 A3014 RMK AO2 T01450045
KHJH 230115Z AUTO 00000KT 10SM OVC075 15/05 A3014 RMK AO2 T01460045
KHJH 230055Z AUTO 00000KT 10SM OVC075 16/04 A3013 RMK AO2 T01570038
KHJH 230035Z AUTO 05003KT 10SM OVC075 16/03 A3013 RMK AO2 T01620032
KHJH 230015Z AUTO 03003KT 10SM OVC075 17/03 A3014 RMK AO2 T01660029
KHJH 222355Z AUTO 07004KT 10SM OVC075 17/02 A3014 RMK AO2 T01690017 10170 20146
KHJH 222335Z AUTO 08008KT 10SM OVC075 17/01 A3013 RMK AO2 T01700008
KHJH 222315Z AUTO 07008KT 10SM OVC075 17/02 A3014 RMK AO2 T01700015
KHJH 222255Z AUTO 07006KT 10SM OVC075 17/02 A3014 RMK AO2 T01700022
KHJH 222235Z AUTO 07006KT 10SM OVC065 17/02 A3015 RMK AO2 T01650020
KHJH 222215Z AUTO 08005KT 10SM OVC065 16/02 A3015 RMK AO2 T01620020
KHJH 222155Z AUTO 08008KT 10SM OVC065 16/02 A3015 RMK AO2 T01600018
KHJH 222135Z AUTO 09008KT 10SM OVC065 16/02 A3015 RMK AO2 T01570021
KHJH 222115Z AUTO 09010KT 10SM OVC065 16/02 A3015 RMK AO2 T01570021
KHJH 222055Z AUTO 07010KT 10SM OVC065 16/02 A3015 RMK AO2 T01560022
KHJH 222035Z AUTO 07011KT 10SM OVC065 16/02 A3016 RMK AO2 T01570020
KHJH 222015Z AUTO 07010KT 10SM OVC065 16/02 A3017 RMK AO2 T01600020
KHJH 221955Z AUTO 07011KT 10SM OVC080 17/02 A3017 RMK AO2 T01650016
KHJH 221935Z AUTO 05011G15KT 10SM OVC080 17/02 A3017 RMK AO2 T01660016
KHJH 221915Z AUTO 04011KT 10SM OVC080 16/01 A3018 RMK AO2 T01610011
KHJH 221855Z AUTO 03012G16KT 10SM OVC080 16/01 A3018 RMK AO2 T01610011
KHJH 221835Z AUTO 03013KT 10SM OVC080 16/01 A3019 RMK AO2 T01600014
KHJH 221815Z AUTO 02009KT 10SM OVC080 16/03 A3019 RMK AO2 T01550029
KHJH 221755Z AUTO 03010KT 10SM OVC080 15/03 A3020 RMK AO2 T01460031 10148 20035
KHJH 221735Z AUTO 02012KT 10SM OVC080 15/04 A3020 RMK AO2 T01470038
KHJH 221715Z AUTO 01008KT 10SM OVC080 14/04 A3020 RMK AO2 T01400040
KHJH 221655Z AUTO 36011KT 10SM SCT080 OVC090 13/04 A3021 RMK AO2 T01320043
KHJH 221635Z AUTO 36009KT 10SM OVC090 13/05 A3021 RMK AO2 T01260049
KHJH 221615Z AUTO 36008KT 10SM BKN080 12/05 A3021 RMK AO2 T01200048
KHJH 221555Z AUTO 36008KT 10SM SCT080 11/05 A3022 RMK AO2 T01110047
KHJH 221535Z AUTO 36009KT 10SM BKN080 10/04 A3022 RMK AO2 T01010041
KHJH 221515Z AUTO 35008KT 10SM BKN080 10/04 A3022 RMK AO2 T00960038
KHJH 221455Z AUTO 35009KT 10SM OVC080 09/04 A3022 RMK AO2 T00880039
KHJH 221435Z AUTO 35006KT 10SM OVC070 07/03 A3022 RMK AO2 T00710030
KHJH 221415Z AUTO 35007KT 10SM OVC070 07/03 A3022 RMK AO2 T00660028
KHJH 221355Z AUTO 34005KT 10SM OVC070 06/03 A3022 RMK AO2 T00600026
KHJH 221335Z AUTO 35007KT 10SM BKN070 05/02 A3023 RMK AO2 T00530022
KHJH 221315Z AUTO 34006KT 10SM CLR 05/02 A3023 RMK AO2 T00470019
KHJH 221255Z AUTO 35006KT 10SM SCT070 04/02 A3022 RMK AO2 T00440020
KHJH 221235Z AUTO 34004KT 10SM CLR 04/02 A3022 RMK AO2 T00360017
KHJH 221215Z AUTO 35003KT 10SM CLR 04/02 A3022 RMK AO2 T00350016
KHJH 221155Z AUTO 34005KT 10SM CLR 04/02 A3021 RMK AO2 70008 T00350017 10065 20035
KHJH 221135Z AUTO 34005KT 10SM CLR 04/02 A3020 RMK AO2 T00370018
KHJH 221115Z AUTO 35006KT 10SM CLR 04/02 A3019 RMK AO2 T00390021
KHJH 221055Z AUTO 33007KT 10SM CLR 04/02 A3019 RMK AO2 T00390021
KHJH 221035Z AUTO 34008KT 10SM CLR 04/02 A3018 RMK AO2 T00410023
KHJH 221015Z AUTO 34009KT 10SM CLR 04/03 A3018 RMK AO2 T00440026
KHJH 220955Z AUTO 34005KT 10SM CLR 05/03 A3018 RMK AO2 T00460030
KHJH 220935Z AUTO 34006KT 10SM CLR 05/03 A3018 RMK AO2 T00470031
KHJH 220915Z AUTO 33003KT 10SM CLR 05/03 A3019 RMK AO2 T00510030
KHJH 220855Z AUTO 35004KT 10SM CLR 05/03 A3019 RMK AO2 T00540033
KHJH 220835Z AUTO 34004KT 10SM SCT120 06/04 A3018 RMK AO2 T00550039
KHJH 220815Z AUTO 33006KT 10SM OVC120 06/04 A3018 RMK AO2 T00570041
KHJH 220755Z AUTO 34006KT 10SM OVC120 06/05 A3018 RMK AO2 T00600045
KHJH 220735Z AUTO 33005KT 10SM OVC120 06/05 A3019 RMK AO2 T00610045
KHJH 220715Z AUTO 32003KT 10SM OVC120 06/05 A3020 RMK AO2 T00610047